Time;durP1;ratioP1;P1;durP2;ratioP2;P2;SDS_P1;SDS_P2;PMS_P1;PMS_P2;Temp;Humidity;BMP_temperature;BMP_pressure;BME280_temperature;BME280_humidity;BME280_pressure;Samples;Min_cycle;Max_cycle;Signal;HPM_P1;HPM_P2
2022/10/28 00:01:09;;;;;;;9.45;3.80;;;24.50;99.90;;;;;;5070743;22;20049;-49
2022/10/28 00:03:44;;;;;;;6.55;3.75;;;24.50;99.90;;;;;;5053458;28;20057;-49
2022/10/28 00:06:13;;;;;;;9.48;3.90;;;24.50;99.90;;;;;;5052202;28;20025;-49
2022/10/28 00:08:39;;;;;;;13.05;4.25;;;24.50;99.90;;;;;;5053595;28;20438;-49
2022/10/28 00:11:11;;;;;;;9.35;4.00;;;24.40;99.90;;;;;;5053286;28;20102;-49
2022/10/28 00:13:37;;;;;;;9.70;4.60;;;24.40;99.90;;;;;;5053394;28;20059;-49
2022/10/28 00:16:05;;;;;;;10.23;4.30;;;24.30;99.90;;;;;;5053496;28;20117;-50
2022/10/28 00:18:31;;;;;;;9.38;4.75;;;24.40;99.90;;;;;;5053265;28;20472;-49
2022/10/28 00:21:08;;;;;;;9.07;3.83;;;24.30;99.90;;;;;;5053332;28;20029;-49
2022/10/28 00:23:34;;;;;;;13.13;3.75;;;24.30;99.90;;;;;;5053316;28;20099;-48
2022/10/28 00:26:11;;;;;;;11.80;4.22;;;24.30;99.90;;;;;;5053343;28;20025;-48
2022/10/28 00:28:58;;;;;;;12.35;5.53;;;24.30;99.90;;;;;;5053259;28;20025;-48
2022/10/28 00:31:25;;;;;;;14.98;7.07;;;24.20;99.90;;;;;;5053183;28;20025;-48
2022/10/28 00:33:51;;;;;;;8.77;5.03;;;24.20;99.90;;;;;;5053048;28;20056;-48
2022/10/28 00:36:26;;;;;;;12.23;4.90;;;24.20;99.90;;;;;;5052935;28;20505;-49
2022/10/28 00:38:54;;;;;;;7.32;4.57;;;24.20;99.90;;;;;;5051874;28;20118;-48
2022/10/28 00:41:22;;;;;;;10.73;5.03;;;24.10;99.90;;;;;;5053339;28;20126;-49
2022/10/28 00:43:57;;;;;;;13.65;5.63;;;24.10;99.90;;;;;;5053251;28;20049;-49
2022/10/28 00:46:35;;;;;;;9.30;4.38;;;24.10;99.90;;;;;;5053019;28;20028;-49
2022/10/28 00:49:16;;;;;;;10.85;3.75;;;24.10;99.90;;;;;;5052966;28;20112;-48
2022/10/28 00:51:44;;;;;;;9.07;3.80;;;24.10;99.90;;;;;;5052975;28;20029;-49
2022/10/28 00:54:11;;;;;;;8.93;3.85;;;24.10;99.90;;;;;;5052995;28;20025;-48
2022/10/28 00:56:42;;;;;;;12.70;4.75;;;24.10;99.90;;;;;;5052956;28;20035;-49
2022/10/28 00:59:15;;;;;;;10.27;4.85;;;24.00;99.90;;;;;;5053342;28;20033;-49
2022/10/28 01:01:40;;;;;;;14.27;4.82;;;24.00;99.90;;;;;;5052646;28;20033;-48
2022/10/28 01:04:07;;;;;;;8.63;4.57;;;24.00;99.90;;;;;;5052898;28;20372;-49
2022/10/28 01:06:33;;;;;;;9.48;4.25;;;24.00;99.90;;;;;;5054488;28;20059;-49
2022/10/28 01:08:58;;;;;;;10.18;4.95;;;24.00;99.90;;;;;;5056689;28;20432;-49
2022/10/28 01:11:47;;;;;;;9.75;4.30;;;24.00;99.90;;;;;;5056860;28;20017;-50
2022/10/28 01:14:34;;;;;;;10.25;4.43;;;24.00;99.90;;;;;;5056736;28;20489;-49
2022/10/28 01:17:20;;;;;;;12.20;5.22;;;23.90;99.90;;;;;;5056643;28;20100;-49
2022/10/28 01:20:23;;;;;;;7.88;4.28;;;23.90;99.90;;;;;;5056663;28;20079;-49
2022/10/28 01:23:09;;;;;;;7.43;4.20;;;23.90;99.90;;;;;;5056552;28;20381;-50
2022/10/28 01:25:34;;;;;;;8.55;4.03;;;24.00;99.90;;;;;;5056483;28;20036;-49
2022/10/28 01:28:18;;;;;;;5.35;4.10;;;23.90;99.90;;;;;;5056576;28;20021;-49
2022/10/28 01:31:08;;;;;;;11.68;4.25;;;23.80;99.90;;;;;;5056346;28;20025;-49
2022/10/28 01:34:01;;;;;;;9.52;3.88;;;23.80;99.90;;;;;;5056364;28;20017;-49
2022/10/28 01:36:46;;;;;;;11.95;5.00;;;23.80;99.90;;;;;;5056178;28;20090;-49
2022/10/28 01:39:27;;;;;;;9.93;4.55;;;23.80;99.90;;;;;;5056024;28;20025;-49
2022/10/28 01:42:00;;;;;;;10.57;4.93;;;23.80;99.90;;;;;;5056304;28;20057;-50
2022/10/28 01:44:26;;;;;;;9.27;4.75;;;23.70;99.90;;;;;;5056347;28;20406;-49
2022/10/28 01:47:24;;;;;;;13.35;5.45;;;23.70;99.90;;;;;;5056173;28;20044;-49
2022/10/28 01:50:27;;;;;;;10.68;4.60;;;23.70;99.90;;;;;;5056091;28;20025;-49
2022/10/28 01:52:58;;;;;;;10.05;5.50;;;23.70;99.90;;;;;;5049198;28;20037;-50
2022/10/28 01:55:34;;;;;;;13.35;5.95;;;23.60;99.90;;;;;;5055867;28;20027;-50
2022/10/28 01:58:03;;;;;;;16.10;7.07;;;23.60;99.90;;;;;;5055869;28;20041;-50
2022/10/28 02:00:31;;;;;;;14.85;5.72;;;23.60;99.90;;;;;;5078229;22;20060;-64
2022/10/28 02:02:56;;;;;;;9.88;5.40;;;23.60;99.90;;;;;;5075750;28;20039;-64
2022/10/28 02:05:45;;;;;;;14.90;5.20;;;23.60;99.90;;;;;;5075857;28;20021;-62
2022/10/28 02:08:17;;;;;;;8.02;4.70;;;23.60;99.90;;;;;;5075890;28;20029;-62
2022/10/28 02:11:11;;;;;;;20.95;5.85;;;23.50;99.90;;;;;;5075831;28;20024;-62
2022/10/28 02:13:51;;;;;;;19.42;6.72;;;23.50;99.90;;;;;;5075870;28;20031;-62
2022/10/28 02:16:19;;;;;;;9.30;5.40;;;23.50;99.90;;;;;;5075574;28;20046;-62
2022/10/28 02:18:51;;;;;;;14.02;5.03;;;23.40;99.90;;;;;;5074625;28;20162;-63
2022/10/28 02:21:28;;;;;;;15.18;5.32;;;23.40;99.90;;;;;;5075331;28;20537;-62
2022/10/28 02:24:22;;;;;;;9.88;5.07;;;23.40;99.90;;;;;;5075499;28;20033;-62
2022/10/28 02:27:05;;;;;;;11.30;5.72;;;23.40;99.90;;;;;;5057418;28;20021;-62
2022/10/28 02:29:43;;;;;;;14.25;5.60;;;23.30;99.90;;;;;;5075435;28;20431;-62
2022/10/28 02:32:17;;;;;;;10.40;5.75;;;23.30;99.90;;;;;;5075245;28;20025;-62
2022/10/28 02:34:48;;;;;;;8.43;5.35;;;23.30;99.90;;;;;;5075366;28;20350;-62
2022/10/28 02:37:22;;;;;;;12.20;5.85;;;23.30;99.90;;;;;;5074954;28;20021;-62
2022/10/28 02:39:55;;;;;;;10.50;5.20;;;23.30;99.90;;;;;;5075214;28;20185;-62
2022/10/28 02:42:33;;;;;;;13.63;6.43;;;23.20;99.90;;;;;;5075259;28;20020;-62
2022/10/28 02:45:06;;;;;;;9.35;5.40;;;23.20;99.90;;;;;;5075122;28;20118;-61
2022/10/28 02:47:36;;;;;;;13.07;6.25;;;23.20;99.90;;;;;;5075299;28;20142;-61
2022/10/28 02:50:08;;;;;;;12.40;5.97;;;23.20;99.90;;;;;;5074948;28;20032;-62
2022/10/28 02:52:35;;;;;;;10.25;5.57;;;23.20;99.90;;;;;;5074752;28;20079;-61
2022/10/28 02:55:03;;;;;;;17.35;6.22;;;23.10;99.90;;;;;;5056975;28;20111;-62
2022/10/28 02:57:32;;;;;;;16.48;7.07;;;23.20;99.90;;;;;;5074669;28;20029;-62
2022/10/28 03:00:01;;;;;;;13.98;6.78;;;23.10;99.90;;;;;;5080893;22;20110;-48
2022/10/28 03:02:27;;;;;;;7.72;5.82;;;23.10;99.90;;;;;;5054704;28;20025;-48
2022/10/28 03:04:53;;;;;;;13.82;6.60;;;23.10;99.90;;;;;;5036802;28;20021;-49
2022/10/28 03:07:19;;;;;;;13.43;6.38;;;23.10;99.90;;;;;;5054507;28;20040;-47
2022/10/28 03:09:45;;;;;;;12.85;6.00;;;23.10;99.90;;;;;;5036486;28;20480;-48
2022/10/28 03:12:11;;;;;;;11.02;5.65;;;23.10;99.90;;;;;;5054574;28;20040;-49
2022/10/28 03:14:36;;;;;;;16.92;5.65;;;23.10;99.90;;;;;;5036532;28;20029;-48
2022/10/28 03:17:02;;;;;;;13.73;6.03;;;23.20;99.90;;;;;;5054295;28;20040;-48
2022/10/28 03:19:28;;;;;;;13.80;7.28;;;23.20;99.90;;;;;;5054292;28;20033;-48
2022/10/28 03:21:54;;;;;;;16.02;6.18;;;23.20;99.90;;;;;;5054248;28;20078;-48
2022/10/28 03:24:20;;;;;;;17.38;4.93;;;23.20;99.90;;;;;;5036153;28;20083;-47
2022/10/28 03:26:46;;;;;;;16.30;6.30;;;23.20;99.90;;;;;;5054288;28;20032;-48
2022/10/28 03:29:11;;;;;;;13.25;5.60;;;23.20;99.90;;;;;;5054043;28;20024;-48
2022/10/28 03:31:37;;;;;;;11.90;5.45;;;23.30;99.90;;;;;;5054212;28;20048;-48
2022/10/28 03:34:03;;;;;;;11.13;5.68;;;23.30;99.90;;;;;;5036510;28;20021;-49
2022/10/28 03:36:28;;;;;;;13.40;6.75;;;23.30;99.90;;;;;;5053986;28;20021;-47
2022/10/28 03:38:54;;;;;;;13.38;5.43;;;23.30;99.90;;;;;;5053952;28;20060;-47
2022/10/28 03:41:20;;;;;;;14.23;5.57;;;23.30;99.90;;;;;;5053820;28;20104;-48
2022/10/28 03:43:45;;;;;;;11.85;5.88;;;23.30;99.90;;;;;;5053770;28;20063;-48
2022/10/28 03:46:11;;;;;;;16.10;5.72;;;23.30;99.90;;;;;;5053621;28;20093;-47
2022/10/28 03:48:37;;;;;;;16.00;6.47;;;23.30;99.90;;;;;;5053615;28;20107;-48
2022/10/28 03:51:03;;;;;;;12.98;5.88;;;23.30;99.90;;;;;;5053679;28;20031;-48
2022/10/28 03:53:29;;;;;;;16.75;6.82;;;23.30;99.90;;;;;;5053695;28;20078;-48
2022/10/28 03:55:56;;;;;;;12.93;6.25;;;23.30;99.90;;;;;;5053759;28;20077;-52
2022/10/28 03:58:22;;;;;;;12.38;5.65;;;23.30;99.90;;;;;;5053743;28;20037;-49
2022/10/28 04:00:49;;;;;;;15.20;6.38;;;23.30;99.90;;;;;;5054017;28;20404;-49
2022/10/28 04:03:16;;;;;;;8.93;5.47;;;23.20;99.90;;;;;;5035601;28;20548;-49
2022/10/28 04:05:42;;;;;;;16.80;6.35;;;23.20;99.90;;;;;;5053670;28;20025;-49
2022/10/28 04:08:07;;;;;;;14.70;6.55;;;23.20;99.90;;;;;;5053567;28;20487;-50
2022/10/28 04:10:33;;;;;;;11.63;6.00;;;23.20;99.90;;;;;;5053503;28;20087;-49
2022/10/28 04:13:00;;;;;;;16.30;5.55;;;23.20;99.90;;;;;;5053489;28;20024;-49
2022/10/28 04:15:26;;;;;;;14.48;6.55;;;23.20;99.90;;;;;;5053538;28;20056;-49
2022/10/28 04:17:52;;;;;;;8.65;5.13;;;23.20;99.90;;;;;;5035295;28;20531;-49
2022/10/28 04:20:18;;;;;;;14.50;6.03;;;23.20;99.90;;;;;;5053412;28;20031;-49
2022/10/28 04:22:43;;;;;;;17.63;6.30;;;23.20;99.90;;;;;;5053429;28;20039;-48
2022/10/28 04:25:09;;;;;;;16.70;5.90;;;23.20;99.90;;;;;;5053267;28;20473;-49
2022/10/28 04:27:35;;;;;;;12.85;5.97;;;23.20;99.90;;;;;;5053341;28;20142;-48
2022/10/28 04:30:02;;;;;;;14.15;5.47;;;23.20;99.90;;;;;;5053570;28;20025;-47
2022/10/28 04:32:27;;;;;;;11.70;7.18;;;23.20;99.90;;;;;;5053138;28;20167;-48
2022/10/28 04:34:53;;;;;;;18.40;6.13;;;23.20;99.90;;;;;;5053151;28;20100;-50
2022/10/28 04:37:19;;;;;;;16.75;7.22;;;23.20;99.90;;;;;;5053021;28;20407;-48
2022/10/28 04:39:44;;;;;;;10.95;5.13;;;23.20;99.90;;;;;;5053062;28;20035;-47
2022/10/28 04:42:10;;;;;;;13.13;5.45;;;23.20;99.90;;;;;;5052640;28;20025;-50
2022/10/28 04:44:36;;;;;;;13.95;5.50;;;23.10;99.90;;;;;;5035392;28;20033;-50
2022/10/28 04:47:02;;;;;;;16.30;6.30;;;23.20;99.90;;;;;;5053056;28;20025;-50
2022/10/28 04:49:27;;;;;;;14.00;4.80;;;23.20;99.90;;;;;;5052892;28;20056;-48
2022/10/28 04:51:53;;;;;;;16.83;4.88;;;23.20;99.90;;;;;;5053035;28;20029;-48
2022/10/28 04:54:19;;;;;;;13.48;4.80;;;23.20;99.90;;;;;;5053015;28;20025;-51
2022/10/28 04:56:44;;;;;;;10.13;4.63;;;23.10;99.90;;;;;;5052893;28;20112;-48
2022/10/28 04:59:10;;;;;;;18.92;4.82;;;23.20;99.90;;;;;;5052762;28;20370;-49
2022/10/28 05:01:36;;;;;;;11.63;4.28;;;23.20;99.90;;;;;;5052773;28;20075;-49
2022/10/28 05:04:02;;;;;;;14.80;4.38;;;23.10;99.90;;;;;;5052989;28;20040;-48
2022/10/28 05:06:28;;;;;;;12.80;4.65;;;23.10;99.90;;;;;;5052852;28;20025;-48
2022/10/28 05:08:54;;;;;;;13.68;5.18;;;23.20;99.90;;;;;;5052872;28;20064;-48
2022/10/28 05:11:19;;;;;;;14.52;5.53;;;23.20;99.90;;;;;;5052660;28;20059;-49
2022/10/28 05:13:45;;;;;;;31.85;6.47;;;23.20;99.90;;;;;;5052741;28;20539;-49
2022/10/28 05:16:11;;;;;;;23.45;5.88;;;23.20;99.90;;;;;;5052559;28;20147;-49
2022/10/28 05:18:36;;;;;;;22.02;5.55;;;23.20;99.90;;;;;;5052600;28;20037;-48
2022/10/28 05:21:02;;;;;;;17.30;5.10;;;23.20;99.90;;;;;;5052772;28;20021;-48
2022/10/28 05:23:28;;;;;;;20.73;5.65;;;23.10;99.90;;;;;;5052498;28;20477;-48
2022/10/28 05:25:54;;;;;;;17.20;5.72;;;23.20;99.90;;;;;;5052596;28;20028;-48
2022/10/28 05:28:20;;;;;;;11.40;5.60;;;23.20;99.90;;;;;;5052431;28;20039;-49
2022/10/28 05:30:46;;;;;;;12.23;6.10;;;23.20;99.90;;;;;;5052747;28;20477;-48
2022/10/28 05:33:12;;;;;;;16.90;5.72;;;23.20;99.90;;;;;;5052371;28;20033;-48
2022/10/28 05:35:38;;;;;;;14.88;5.53;;;23.20;99.90;;;;;;5052451;28;20052;-48
2022/10/28 05:38:05;;;;;;;16.50;6.90;;;23.20;99.90;;;;;;5052399;28;20076;-48
2022/10/28 05:40:34;;;;;;;28.60;9.10;;;23.20;99.90;;;;;;5052309;28;20025;-49
2022/10/28 05:43:00;;;;;;;15.23;6.55;;;23.20;99.90;;;;;;5052359;28;20024;-48
2022/10/28 05:45:26;;;;;;;14.20;7.70;;;23.10;99.90;;;;;;5052546;28;20017;-49
2022/10/28 05:47:52;;;;;;;13.80;6.35;;;23.10;99.90;;;;;;5034689;28;20535;-49
2022/10/28 05:50:19;;;;;;;14.55;6.38;;;23.10;99.90;;;;;;5052259;28;20048;-48
2022/10/28 05:52:50;;;;;;;15.25;6.85;;;23.10;99.90;;;;;;5052831;28;20333;-48
2022/10/28 05:55:20;;;;;;;14.25;6.80;;;23.10;99.90;;;;;;5055925;28;20025;-48
2022/10/28 05:57:47;;;;;;;19.98;7.80;;;23.10;99.90;;;;;;5055882;28;20029;-47
2022/10/28 06:00:14;;;;;;;11.95;6.95;;;23.10;99.90;;;;;;5055511;28;20041;-48
2022/10/28 06:02:41;;;;;;;11.27;7.20;;;23.10;99.90;;;;;;5055819;28;20025;-48
2022/10/28 06:05:07;;;;;;;24.30;8.88;;;23.00;99.90;;;;;;5055637;28;20337;-48
2022/10/28 06:07:36;;;;;;;17.95;8.80;;;23.00;99.90;;;;;;5055747;28;20037;-48
2022/10/28 06:10:03;;;;;;;16.50;8.20;;;23.00;99.90;;;;;;5037840;28;20021;-48
2022/10/28 06:12:29;;;;;;;19.05;7.72;;;23.00;99.90;;;;;;5055508;28;20029;-48
2022/10/28 06:14:54;;;;;;;20.38;7.88;;;23.00;99.90;;;;;;5055532;28;20025;-47
2022/10/28 06:17:20;;;;;;;18.25;8.00;;;23.00;99.90;;;;;;5055404;28;20389;-47
2022/10/28 06:19:46;;;;;;;15.07;7.95;;;22.90;99.90;;;;;;5055479;28;20032;-48
2022/10/28 06:22:12;;;;;;;18.40;8.75;;;22.90;99.90;;;;;;5055670;28;20021;-48
2022/10/28 06:24:38;;;;;;;16.00;7.68;;;22.80;99.90;;;;;;5055321;28;20032;-48
2022/10/28 06:27:03;;;;;;;14.68;8.40;;;22.80;99.90;;;;;;5055239;28;20358;-48
2022/10/28 06:29:31;;;;;;;27.02;12.32;;;22.70;99.90;;;;;;5055275;28;20021;-48
2022/10/28 06:31:56;;;;;;;20.55;9.82;;;22.70;99.90;;;;;;5054956;28;20528;-48
2022/10/28 06:34:22;;;;;;;14.55;8.13;;;22.70;99.90;;;;;;5055049;28;20104;-48
2022/10/28 06:36:48;;;;;;;16.35;8.20;;;22.60;99.90;;;;;;5055124;28;20032;-49
2022/10/28 06:39:14;;;;;;;18.05;8.73;;;22.60;99.90;;;;;;5054924;28;20036;-50
2022/10/28 06:41:39;;;;;;;18.83;8.30;;;22.60;99.90;;;;;;5055024;28;20041;-50
2022/10/28 06:44:05;;;;;;;18.58;8.73;;;22.60;99.90;;;;;;5054863;28;20423;-50
2022/10/28 06:46:31;;;;;;;19.95;9.32;;;22.60;99.90;;;;;;5055072;28;20044;-49
2022/10/28 06:48:57;;;;;;;19.38;7.10;;;22.60;99.90;;;;;;5054959;28;20088;-50
2022/10/28 06:51:23;;;;;;;16.33;7.70;;;22.70;99.90;;;;;;5054841;28;20033;-50
2022/10/28 06:53:50;;;;;;;13.93;7.35;;;22.60;99.90;;;;;;5054776;28;20059;-49
2022/10/28 06:56:15;;;;;;;18.80;6.35;;;22.60;99.90;;;;;;5054881;28;20082;-49
2022/10/28 06:58:41;;;;;;;13.93;5.30;;;22.70;99.90;;;;;;5054634;28;20041;-50
2022/10/28 07:01:07;;;;;;;15.38;5.88;;;22.60;99.90;;;;;;5054409;28;20045;-50
2022/10/28 07:03:33;;;;;;;19.45;5.28;;;22.60;99.90;;;;;;5054336;28;20027;-49
2022/10/28 07:05:59;;;;;;;25.38;7.18;;;22.70;99.90;;;;;;5054537;28;20075;-49
2022/10/28 07:08:26;;;;;;;28.85;7.50;;;22.70;99.90;;;;;;5054592;28;20028;-51
2022/10/28 07:10:57;;;;;;;26.50;6.38;;;22.70;99.90;;;;;;5054624;28;20427;-49
2022/10/28 07:13:23;;;;;;;17.05;6.28;;;22.70;99.90;;;;;;5054432;28;20033;-49
2022/10/28 07:15:53;;;;;;;24.45;6.65;;;22.80;99.90;;;;;;5054253;28;20060;-49
2022/10/28 07:18:19;;;;;;;29.35;13.48;;;22.80;99.90;;;;;;5054084;28;20040;-49
2022/10/28 07:20:45;;;;;;;26.08;7.30;;;22.80;99.90;;;;;;5054239;28;20409;-49
2022/10/28 07:23:11;;;;;;;16.23;6.47;;;22.90;99.90;;;;;;5054154;28;20223;-49
2022/10/28 07:25:37;;;;;;;22.30;8.38;;;22.80;99.90;;;;;;5054471;28;20222;-49
2022/10/28 07:28:03;;;;;;;23.08;7.15;;;22.90;99.90;;;;;;5054159;28;20037;-49
2022/10/28 07:30:30;;;;;;;18.38;9.52;;;22.90;99.90;;;;;;5054245;28;20044;-49
2022/10/28 07:32:59;;;;;;;24.02;8.07;;;23.00;99.90;;;;;;5054062;28;20114;-50
2022/10/28 07:35:26;;;;;;;21.95;5.70;;;23.00;99.90;;;;;;5053947;28;20142;-49
2022/10/28 07:37:52;;;;;;;23.83;10.38;;;23.10;99.90;;;;;;5053883;28;20572;-49
2022/10/28 07:40:20;;;;;;;24.38;5.97;;;23.10;99.90;;;;;;5053717;28;20029;-49
2022/10/28 07:42:45;;;;;;;15.55;5.90;;;23.20;99.90;;;;;;5054067;28;20013;-49
2022/10/28 07:45:11;;;;;;;19.42;7.07;;;23.20;99.90;;;;;;5053649;28;20384;-49
2022/10/28 07:47:37;;;;;;;20.65;5.68;;;23.30;99.90;;;;;;5053773;28;20036;-48
2022/10/28 07:50:04;;;;;;;19.08;5.43;;;23.40;99.90;;;;;;5053830;28;20025;-48
2022/10/28 07:52:30;;;;;;;12.38;4.45;;;23.50;99.90;;;;;;5053689;28;20017;-48
2022/10/28 07:54:56;;;;;;;32.75;6.15;;;23.50;99.90;;;;;;5053628;28;20036;-48
2022/10/28 07:57:21;;;;;;;26.70;5.85;;;23.60;99.90;;;;;;5053388;28;20125;-48
2022/10/28 07:59:47;;;;;;;25.63;6.43;;;23.70;99.90;;;;;;5053254;28;20155;-48
2022/10/28 08:02:23;;;;;;;22.17;6.13;;;23.80;99.90;;;;;;5053556;28;20056;-48
2022/10/28 08:04:49;;;;;;;24.90;7.97;;;23.90;99.90;;;;;;5053435;28;20044;-48
2022/10/28 08:07:15;;;;;;;15.73;6.55;;;24.00;99.90;;;;;;5035787;28;20069;-48
2022/10/28 08:09:41;;;;;;;23.40;9.05;;;24.00;99.90;;;;;;5053415;28;20377;-48
2022/10/28 08:12:07;;;;;;;20.90;6.50;;;24.10;99.90;;;;;;5053222;28;20016;-48
2022/10/28 08:14:33;;;;;;;15.88;6.13;;;24.20;99.90;;;;;;5053271;28;20533;-48
2022/10/28 08:16:59;;;;;;;12.23;5.18;;;24.30;99.90;;;;;;5052441;28;20396;-47
2022/10/28 08:19:25;;;;;;;18.55;9.02;;;24.40;99.90;;;;;;5053175;28;20041;-48
2022/10/28 08:21:51;;;;;;;12.35;5.18;;;24.50;99.90;;;;;;5053086;28;20100;-49
2022/10/28 08:24:17;;;;;;;9.85;5.10;;;24.50;99.90;;;;;;5053057;28;20557;-47
2022/10/28 08:26:43;;;;;;;19.63;5.43;;;24.60;99.90;;;;;;5053318;28;20036;-48
2022/10/28 08:29:11;;;;;;;22.80;7.40;;;24.60;99.90;;;;;;5052983;28;20036;-48
2022/10/28 08:31:37;;;;;;;14.73;7.25;;;24.70;99.90;;;;;;5051063;28;20029;-48
2022/10/28 08:34:04;;;;;;;22.30;7.05;;;24.80;99.90;;;;;;5049578;28;20029;-48
2022/10/28 08:36:30;;;;;;;17.33;5.85;;;24.90;99.90;;;;;;5044192;28;20018;-49
2022/10/28 08:38:59;;;;;;;19.48;5.53;;;25.00;99.90;;;;;;5033318;28;20037;-49
2022/10/28 08:41:36;;;;;;;19.88;5.75;;;25.00;99.90;;;;;;5039243;28;20100;-49
2022/10/28 08:44:19;;;;;;;25.85;6.72;;;25.10;99.90;;;;;;5047324;28;20037;-48
2022/10/28 08:47:18;;;;;;;18.73;6.13;;;25.20;99.90;;;;;;5043146;28;20117;-48
2022/10/28 08:49:46;;;;;;;12.73;5.57;;;25.30;99.90;;;;;;5052945;28;20478;-49
2022/10/28 08:52:33;;;;;;;;;;;25.30;99.90;;;;;;5050415;28;20100;-49
2022/10/28 08:55:05;;;;;;;17.25;7.32;;;25.40;99.90;;;;;;5050814;28;19962;-49
2022/10/28 08:57:36;;;;;;;23.00;8.60;;;25.40;99.90;;;;;;5051614;28;20043;-49
2022/10/28 09:00:06;;;;;;;20.17;7.65;;;25.40;99.90;;;;;;5050656;28;20049;-48
2022/10/28 09:02:58;;;;;;;18.63;8.50;;;25.40;99.90;;;;;;5034444;28;20032;-48
2022/10/28 09:05:25;;;;;;;24.10;9.30;;;25.30;99.90;;;;;;4995335;28;20393;-48
2022/10/28 09:07:52;;;;;;;21.95;9.57;;;25.10;99.90;;;;;;5043030;28;20033;-49
2022/10/28 09:10:40;;;;;;;24.75;10.63;;;25.00;99.90;;;;;;5024966;28;20064;-49
2022/10/28 09:13:21;;;;;;;20.75;8.10;;;24.90;99.90;;;;;;5032754;28;20022;-48
2022/10/28 09:16:08;;;;;;;20.27;9.23;;;24.90;99.90;;;;;;5032788;28;20025;-48
2022/10/28 09:18:51;;;;;;;22.33;9.65;;;24.80;99.90;;;;;;5032697;28;20033;-48
2022/10/28 09:21:46;;;;;;;22.08;8.30;;;24.70;99.90;;;;;;5032993;28;20440;-48
2022/10/28 09:24:38;;;;;;;19.25;8.85;;;24.70;99.90;;;;;;5032142;28;20040;-48
2022/10/28 09:27:15;;;;;;;19.75;7.90;;;24.70;99.90;;;;;;5033487;28;20028;-48
2022/10/28 09:30:06;;;;;;;21.90;8.32;;;24.70;99.90;;;;;;5036506;28;20518;-49
2022/10/28 09:32:47;;;;;;;22.63;7.47;;;24.80;99.90;;;;;;5047389;28;20021;-49
2022/10/28 09:35:19;;;;;;;17.80;7.50;;;24.80;99.90;;;;;;5032118;28;20473;-48
2022/10/28 09:37:49;;;;;;;15.50;6.95;;;24.80;99.90;;;;;;5036170;28;20087;-48
2022/10/28 09:40:30;;;;;;;17.80;6.70;;;24.90;99.90;;;;;;5036459;28;20032;-49
2022/10/28 09:43:17;;;;;;;24.27;8.40;;;25.00;99.90;;;;;;5036283;28;20017;-49
2022/10/28 09:45:47;;;;;;;23.77;7.35;;;25.10;99.90;;;;;;5035888;28;20025;-48
2022/10/28 09:48:23;;;;;;;19.98;7.50;;;25.10;99.90;;;;;;5028346;28;20025;-48
2022/10/28 09:50:51;;;;;;;15.90;7.27;;;25.30;99.90;;;;;;5036464;28;20083;-48
2022/10/28 09:53:40;;;;;;;17.33;8.00;;;25.30;99.90;;;;;;5041860;28;20037;-48
2022/10/28 09:56:06;;;;;;;19.10;7.85;;;25.40;99.90;;;;;;5035905;28;20025;-49
2022/10/28 09:58:33;;;;;;;18.15;7.53;;;25.40;99.90;;;;;;5035870;28;20436;-48
2022/10/28 10:01:00;;;;;;;19.85;7.90;;;25.40;99.90;;;;;;5040991;28;20519;-48
2022/10/28 10:03:26;;;;;;;17.27;7.47;;;25.50;99.90;;;;;;5055947;28;20107;-48
2022/10/28 10:05:54;;;;;;;15.52;5.93;;;25.50;99.90;;;;;;5055849;28;20453;-48
2022/10/28 10:08:21;;;;;;;15.50;6.00;;;25.60;99.90;;;;;;5055703;28;20025;-49
2022/10/28 10:11:03;;;;;;;20.00;11.20;;;25.70;99.90;;;;;;5053510;28;20032;-48
2022/10/28 10:13:34;;;;;;;19.27;8.48;;;25.70;99.90;;;;;;5040308;28;20025;-48
2022/10/28 10:16:24;;;;;;;19.13;7.13;;;25.70;99.90;;;;;;5035636;28;20026;-48
2022/10/28 10:18:54;;;;;;;11.18;5.97;;;25.70;99.90;;;;;;5027770;28;20049;-48
2022/10/28 10:21:53;;;;;;;24.30;6.88;;;25.80;99.90;;;;;;5035539;28;20052;-48
2022/10/28 10:24:27;;;;;;;17.17;6.38;;;25.80;99.90;;;;;;4981590;28;20481;-48
2022/10/28 10:26:53;;;;;;;15.45;6.00;;;25.90;99.90;;;;;;5035539;28;20424;-49
2022/10/28 10:29:20;;;;;;;13.32;5.22;;;26.00;99.90;;;;;;5017655;28;20033;-48
2022/10/28 10:31:47;;;;;;;14.60;5.17;;;26.20;99.90;;;;;;5035395;28;20053;-49
2022/10/28 10:34:24;;;;;;;15.77;5.43;;;26.30;99.90;;;;;;5041030;28;20048;-49
2022/10/28 10:36:55;;;;;;;11.82;5.35;;;26.40;99.90;;;;;;5031265;28;20501;-49
2022/10/28 10:39:25;;;;;;;7.75;3.85;;;26.60;99.90;;;;;;5040321;28;20490;-49
2022/10/28 10:41:55;;;;;;;11.93;4.70;;;26.70;99.90;;;;;;5035053;28;20351;-48
2022/10/28 10:44:21;;;;;;;12.27;5.05;;;26.80;99.90;;;;;;5042146;28;20025;-49
2022/10/28 10:47:06;;;;;;;13.13;4.53;;;27.00;99.90;;;;;;5049640;28;20554;-48
2022/10/28 10:49:34;;;;;;;12.82;4.43;;;27.10;99.90;;;;;;5037055;28;20029;-48
2022/10/28 10:52:06;;;;;;;17.48;6.47;;;27.20;99.90;;;;;;5054940;28;20021;-49
2022/10/28 10:54:34;;;;;;;16.60;5.07;;;27.30;99.90;;;;;;5054744;28;20029;-48
2022/10/28 10:57:17;;;;;;;14.60;5.53;;;27.40;99.90;;;;;;5054601;28;20025;-49
2022/10/28 10:59:48;;;;;;;13.75;4.50;;;27.40;99.90;;;;;;5054415;28;20118;-49
2022/10/28 11:02:38;;;;;;;16.90;6.10;;;27.50;99.90;;;;;;5054718;28;20083;-49
2022/10/28 11:05:08;;;;;;;12.82;5.68;;;27.70;99.90;;;;;;5054534;28;20036;-49
2022/10/28 11:07:35;;;;;;;17.65;5.00;;;27.80;99.90;;;;;;5036650;28;20023;-48
2022/10/28 11:10:01;;;;;;;21.85;6.72;;;27.90;99.90;;;;;;5054371;28;20373;-48
2022/10/28 11:12:34;;;;;;;8.97;4.53;;;28.00;99.90;;;;;;5054295;28;20025;-49
2022/10/28 11:15:24;;;;;;;14.82;4.70;;;28.10;99.90;;;;;;5054356;28;20021;-48
2022/10/28 11:18:01;;;;;;;17.52;6.07;;;28.20;99.90;;;;;;5042775;28;20052;-49
2022/10/28 11:20:48;;;;;;;16.98;4.30;;;28.30;99.90;;;;;;5054292;28;20495;-48
2022/10/28 11:23:26;;;;;;;;;;;28.30;99.90;;;;;;5054015;28;20041;-48
2022/10/28 11:25:55;;;;;;;16.25;5.05;;;28.30;99.90;;;;;;5054188;28;20278;-48
2022/10/28 11:28:50;;;;;;;13.77;4.63;;;28.40;99.90;;;;;;5054283;28;20021;-49
2022/10/28 11:31:43;;;;;;;9.40;4.30;;;28.40;99.90;;;;;;5044814;28;20503;-48
2022/10/28 11:34:22;;;;;;;12.57;4.47;;;28.50;99.90;;;;;;5036304;28;20029;-49
2022/10/28 11:37:12;;;;;;;8.95;4.25;;;28.50;99.90;;;;;;5053958;28;20028;-48
2022/10/28 11:39:44;;;;;;;10.90;4.10;;;28.50;99.90;;;;;;5053880;28;20071;-49
2022/10/28 11:42:24;;;;;;;16.17;6.47;;;28.50;99.90;;;;;;5053904;28;20100;-48
2022/10/28 11:45:11;;;;;;;13.65;4.40;;;28.50;99.90;;;;;;5054021;28;20052;-48
2022/10/28 11:47:40;;;;;;;;;;;28.40;99.90;;;;;;5036249;28;20021;-48
2022/10/28 11:50:15;;;;;;;19.17;6.00;;;28.40;99.90;;;;;;5035760;28;19912;-48
2022/10/28 11:53:29;;;;;;;16.02;4.80;;;28.50;99.90;;;;;;5053806;28;20025;-49
2022/10/28 11:56:07;;;;;;;23.15;5.22;;;28.50;99.90;;;;;;4999541;28;20038;-49
2022/10/28 11:58:52;;;;;;;12.40;5.65;;;28.40;99.90;;;;;;5053459;28;20346;-49
2022/10/28 12:01:18;;;;;;;14.32;5.97;;;28.40;99.90;;;;;;5053470;28;20041;-49
2022/10/28 12:04:13;;;;;;;17.10;6.38;;;28.50;99.90;;;;;;5053506;28;20040;-49
2022/10/28 12:07:06;;;;;;;11.45;6.13;;;28.50;99.90;;;;;;5011552;28;20033;-49
2022/10/28 12:10:07;;;;;;;52.92;20.38;;;28.50;99.90;;;;;;5053364;28;20051;-49
2022/10/28 12:13:00;;;;;;;21.55;8.05;;;28.60;99.90;;;;;;5047387;28;20040;-49
2022/10/28 12:15:54;;;;;;;25.58;10.55;;;28.70;99.90;;;;;;5033422;28;20025;-49
2022/10/28 12:18:32;;;;;;;19.25;5.68;;;28.80;99.90;;;;;;5033318;28;20037;-49
2022/10/28 12:21:42;;;;;;;14.98;6.32;;;28.90;99.90;;;;;;5037184;28;20017;-49
2022/10/28 12:24:18;;;;;;;10.73;5.03;;;29.00;99.90;;;;;;4972416;28;20059;-48
2022/10/28 12:27:23;;;;;;;19.10;5.82;;;29.20;99.90;;;;;;4972450;28;20023;-49
2022/10/28 12:29:54;;;;;;;16.17;5.47;;;29.40;99.90;;;;;;5037321;28;20041;-49
2022/10/28 12:32:32;;;;;;;10.57;7.00;;;29.50;99.90;;;;;;5053115;28;20795;-49
2022/10/28 12:35:15;;;;;;;22.13;10.88;;;29.70;99.90;;;;;;5053230;28;20529;-48
2022/10/28 12:37:48;;;;;;;17.38;7.65;;;29.70;99.90;;;;;;5053020;28;20021;-48
2022/10/28 12:40:27;;;;;;;16.80;7.35;;;29.80;99.90;;;;;;5035074;28;20180;-48
2022/10/28 12:43:09;;;;;;;12.43;6.78;;;29.80;99.90;;;;;;5053036;28;20158;-48
2022/10/28 12:45:37;;;;;;;19.88;10.15;;;29.90;99.90;;;;;;5035159;28;20033;-48
2022/10/28 12:48:21;;;;;;;16.20;8.00;;;29.90;99.90;;;;;;5051190;28;20481;-48
2022/10/28 12:50:46;;;;;;;17.27;6.90;;;29.90;99.90;;;;;;5035633;28;20018;-48
2022/10/28 12:53:35;;;;;;;14.40;6.60;;;30.00;99.90;;;;;;5043045;28;20117;-48
2022/10/28 12:56:05;;;;;;;15.40;6.60;;;30.00;99.90;;;;;;5052551;28;20017;-48
2022/10/28 12:58:53;;;;;;;22.38;9.45;;;30.00;99.90;;;;;;5052297;28;20044;-48
2022/10/28 13:01:22;;;;;;;17.45;7.55;;;30.00;99.90;;;;;;5041222;28;20405;-48
2022/10/28 13:03:49;;;;;;;17.63;7.35;;;30.00;99.90;;;;;;5055072;28;20071;-48